Test XHTML 1.0 Strict Page for WU-History Testing
Station Historical Data
 
Daily Summary for May 22, 2017 Units:  Both    English   Metric
« Previous Day
Next Day »
Daily Weekly Monthly Yearly Custom
  Current: High: Low: Average:
Temperature: 64.6 °F /  18.1 °C 73.4 °F /  23 °C 48.6 °F /  9.2 °C 61.1 °F /  16.2 °C
Dew Point: 58.3 °F /  14.6 °C 59.3 °F /  15.2 °C 48.6 °F /  9.2 °C 53.3 °F /  11.8 °C
Humidity: 80 % 100 % 53 % 78 %
Wind Speed: 1.7 mph /  2.7 km/h 14.4 mph /  23.2 km/h - 3.8 mph /  6.1 km/h
Wind Gust: 1.7 mph /  2.7 km/h 14.4 mph /  23.2 km/h - -
Wind:NNW - - SSE
Pressure: 29.93 in /  1013.4 hPa 30.12 in /  1019.9 hPa 29.91 in /  1012.8 hPa -
Precipitation: 0.00 in /  0 mm      
Historical Graphs
 
 
Weather-Above Climate History
Untitled
Tabular Data for May 22, 2017
Time Temperature Dew Point Pressure Wind Wind Speed Wind Gust Humidity Rainfall Rate (Hourly) solar Conditions
00:02 48.6 °F /  9.2 °C 48.6 °F /  9.2 °C 30.11 in /  1019.5 hPa Calm     100 % 0.00 in /  0 mm 20.0 W/m2 CLR
00:07 48.9 °F /  9.4 °C 48.9 °F /  9.4 °C 30.11 in /  1019.5 hPa SSE 1.2 mph /  1.9 km/h 1.2 mph /  1.9 km/h 100 % 0.00 in /  0 mm 0.0 W/m2 CLR
00:12 49.3 °F /  9.6 °C 49.3 °F /  9.6 °C 30.11 in /  1019.5 hPa Calm     100 % 0.00 in /  0 mm 0.0 W/m2 CLR
00:17 49.3 °F /  9.6 °C 49.3 °F /  9.6 °C 30.12 in /  1019.9 hPa Calm     100 % 0.00 in /  0 mm 40.0 W/m2 CLR
00:22 49.6 °F /  9.8 °C 49.6 °F /  9.8 °C 30.11 in /  1019.5 hPa South 1.4 mph /  2.3 km/h 1.4 mph /  2.3 km/h 100 % 0.00 in /  0 mm 17.5 W/m2 CLR
00:27 49.8 °F /  9.9 °C 49.8 °F /  9.9 °C 30.11 in /  1019.5 hPa Calm     100 % 0.00 in /  0 mm 0.0 W/m2 CLR
00:32 50.2 °F /  10.1 °C 49.9 °F /  9.9 °C 30.11 in /  1019.5 hPa South 3.5 mph /  5.6 km/h   99 % 0.00 in /  0 mm 15.0 W/m2 CLR
00:37 50.2 °F /  10.1 °C 49.9 °F /  9.9 °C 30.11 in /  1019.5 hPa Calm     99 % 0.00 in /  0 mm 20.0 W/m2 CLR
00:42 50.4 °F /  10.2 °C 50.1 °F /  10.1 °C 30.11 in /  1019.5 hPa Calm     99 % 0.00 in /  0 mm 0.0 W/m2
00:47 50.2 °F /  10.1 °C 49.9 °F /  9.9 °C 30.11 in /  1019.5 hPa Calm     99 % 0.00 in /  0 mm 20.0 W/m2
00:52 50.2 °F /  10.1 °C 50.2 °F /  10.1 °C 30.11 in /  1019.5 hPa Calm     100 % 0.00 in /  0 mm 17.5 W/m2
00:57 50.2 °F /  10.1 °C 50.2 °F /  10.1 °C 30.10 in /  1019.2 hPa SSE 1.5 mph /  2.4 km/h 1.5 mph /  2.4 km/h 100 % 0.00 in /  0 mm 0.0 W/m2
01:02 50.5 °F /  10.3 °C 50.0 °F /  10 °C 30.10 in /  1019.2 hPa SSE 0.7 mph /  1.1 km/h 0.7 mph /  1.1 km/h 98 % 0.00 in /  0 mm 27.5 W/m2
01:07 50.4 °F /  10.2 °C 50.1 °F /  10.1 °C 30.10 in /  1019.2 hPa SSE 2.3 mph /  3.7 km/h 2.3 mph /  3.7 km/h 99 % 0.00 in /  0 mm 20.0 W/m2
01:12 50.7 °F /  10.4 °C 49.9 °F /  9.9 °C 30.10 in /  1019.2 hPa Calm     97 % 0.00 in /  0 mm 0.0 W/m2
01:17 50.9 °F /  10.5 °C 50.1 °F /  10.1 °C 30.10 in /  1019.2 hPa Calm     97 % 0.00 in /  0 mm 20.0 W/m2
01:22 50.7 °F /  10.4 °C 50.2 °F /  10.1 °C 30.10 in /  1019.2 hPa Calm     98 % 0.00 in /  0 mm 0.0 W/m2 CLR
01:27 50.7 °F /  10.4 °C 50.2 °F /  10.1 °C 30.10 in /  1019.2 hPa Calm     98 % 0.00 in /  0 mm 0.0 W/m2 CLR
01:33 50.7 °F /  10.4 °C 49.9 °F /  9.9 °C 30.10 in /  1019.2 hPa Calm     97 % 0.00 in /  0 mm 17.5 W/m2 CLR
01:38 50.5 °F /  10.3 °C 50.0 °F /  10 °C 30.10 in /  1019.2 hPa Calm     98 % 0.00 in /  0 mm 0.0 W/m2 CLR
01:43 50.4 °F /  10.2 °C 49.8 °F /  9.9 °C 30.09 in /  1018.8 hPa Calm     98 % 0.00 in /  0 mm 0.0 W/m2 CLR
01:48 50.4 °F /  10.2 °C 50.1 °F /  10.1 °C 30.09 in /  1018.8 hPa Calm     99 % 0.00 in /  0 mm 20.0 W/m2
01:53 50.2 °F /  10.1 °C 49.9 °F /  9.9 °C 30.09 in /  1018.8 hPa SSW 1.2 mph /  1.9 km/h 1.2 mph /  1.9 km/h 99 % 0.00 in /  0 mm 20.0 W/m2
01:58 50.4 °F /  10.2 °C 49.8 °F /  9.9 °C 30.09 in /  1018.8 hPa SSE 2.3 mph /  3.7 km/h 2.3 mph /  3.7 km/h 98 % 0.00 in /  0 mm 0.0 W/m2 CLR
02:03 50.2 °F /  10.1 °C 49.9 °F /  9.9 °C 30.08 in /  1018.5 hPa Calm     99 % 0.00 in /  0 mm 15.0 W/m2
02:08 50.0 °F /  10 °C 49.7 °F /  9.8 °C 30.08 in /  1018.5 hPa Calm     99 % 0.00 in /  0 mm 20.0 W/m2 CLR
02:13 50.0 °F /  10 °C 49.7 °F /  9.8 °C 30.08 in /  1018.5 hPa Calm     99 % 0.00 in /  0 mm 0.0 W/m2 CLR
02:18 49.8 °F /  9.9 °C 49.6 °F /  9.8 °C 30.08 in /  1018.5 hPa Calm     99 % 0.00 in /  0 mm 22.5 W/m2 CLR
02:23 49.8 °F /  9.9 °C 49.8 °F /  9.9 °C 30.08 in /  1018.5 hPa SE 1.2 mph /  1.9 km/h 1.2 mph /  1.9 km/h 100 % 0.00 in /  0 mm 20.0 W/m2 CLR
02:28 49.8 °F /  9.9 °C 49.8 °F /  9.9 °C 30.08 in /  1018.5 hPa ESE 2.3 mph /  3.7 km/h 2.3 mph /  3.7 km/h 100 % 0.00 in /  0 mm 0.0 W/m2
02:33 50.0 °F /  10 °C 49.7 °F /  9.8 °C 30.08 in /  1018.5 hPa Calm     99 % 0.00 in /  0 mm 15.0 W/m2
02:38 50.0 °F /  10 °C 49.7 °F /  9.8 °C 30.08 in /  1018.5 hPa South 2.8 mph /  4.5 km/h 2.8 mph /  4.5 km/h 99 % 0.00 in /  0 mm 17.5 W/m2
02:43 50.2 °F /  10.1 °C 49.6 °F /  9.8 °C 30.08 in /  1018.5 hPa Calm     98 % 0.00 in /  0 mm 0.0 W/m2
02:48 50.4 °F /  10.2 °C 49.8 °F /  9.9 °C 30.08 in /  1018.5 hPa Calm     98 % 0.00 in /  0 mm 17.5 W/m2
02:54 50.4 °F /  10.2 °C 49.8 °F /  9.9 °C 30.07 in /  1018.2 hPa Calm     98 % 0.00 in /  0 mm 17.5 W/m2
02:59 50.4 °F /  10.2 °C 49.8 °F /  9.9 °C 30.07 in /  1018.2 hPa SE 1.2 mph /  1.9 km/h   98 % 0.00 in /  0 mm 17.5 W/m2
03:04 50.2 °F /  10.1 °C 49.9 °F /  9.9 °C 30.07 in /  1018.2 hPa ESE 3.5 mph /  5.6 km/h 3.5 mph /  5.6 km/h 99 % 0.00 in /  0 mm 17.5 W/m2
03:09 50.0 °F /  10 °C 49.7 °F /  9.8 °C 30.07 in /  1018.2 hPa Calm     99 % 0.00 in /  0 mm 20.0 W/m2
03:14 50.0 °F /  10 °C 49.7 °F /  9.8 °C 30.07 in /  1018.2 hPa Calm     99 % 0.00 in /  0 mm 22.5 W/m2
03:19 50.0 °F /  10 °C 49.7 °F /  9.8 °C 30.07 in /  1018.2 hPa Calm     99 % 0.00 in /  0 mm 0.0 W/m2
03:24 49.8 °F /  9.9 °C 49.6 °F /  9.8 °C 30.07 in /  1018.2 hPa Calm     99 % 0.00 in /  0 mm 17.5 W/m2 CLR
03:29 49.8 °F /  9.9 °C 49.3 °F /  9.6 °C 30.06 in /  1017.8 hPa Calm     98 % 0.00 in /  0 mm 17.5 W/m2 CLR
03:34 49.8 °F /  9.9 °C 49.8 °F /  9.9 °C 30.07 in /  1018.2 hPa Calm     100 % 0.00 in /  0 mm 0.0 W/m2 CLR
03:39 49.6 °F /  9.8 °C 49.4 °F /  9.7 °C 30.07 in /  1018.2 hPa SSE 3.5 mph /  5.6 km/h 3.5 mph /  5.6 km/h 99 % 0.00 in /  0 mm 22.5 W/m2
03:44 49.8 °F /  9.9 °C 49.3 °F /  9.6 °C 30.06 in /  1017.8 hPa South 1.2 mph /  1.9 km/h   98 % 0.00 in /  0 mm 17.5 W/m2
03:49 49.8 °F /  9.9 °C 49.8 °F /  9.9 °C 30.06 in /  1017.8 hPa Calm     100 % 0.00 in /  0 mm 0.0 W/m2
03:54 49.8 °F /  9.9 °C 49.6 °F /  9.8 °C 30.06 in /  1017.8 hPa SSE 1.5 mph /  2.4 km/h 1.5 mph /  2.4 km/h 99 % 0.00 in /  0 mm 17.5 W/m2
03:59 49.8 °F /  9.9 °C 49.6 °F /  9.8 °C 30.06 in /  1017.8 hPa SE 2.3 mph /  3.7 km/h 2.3 mph /  3.7 km/h 99 % 0.00 in /  0 mm 22.5 W/m2
04:04 49.8 °F /  9.9 °C 49.8 °F /  9.9 °C 30.05 in /  1017.5 hPa SSE 1.4 mph /  2.3 km/h 1.4 mph /  2.3 km/h 100 % 0.00 in /  0 mm 0.0 W/m2
04:09 50.0 °F /  10 °C 49.7 °F /  9.8 °C 30.05 in /  1017.5 hPa SE 3.5 mph /  5.6 km/h 3.5 mph /  5.6 km/h 99 % 0.00 in /  0 mm 22.5 W/m2 CLR
04:14 50.0 °F /  10 °C 49.7 °F /  9.8 °C 30.05 in /  1017.5 hPa SE 2.3 mph /  3.7 km/h 2.3 mph /  3.7 km/h 99 % 0.00 in /  0 mm 17.5 W/m2 CLR
04:19 49.8 °F /  9.9 °C 49.8 °F /  9.9 °C 30.05 in /  1017.5 hPa SE 2.3 mph /  3.7 km/h 2.3 mph /  3.7 km/h 100 % 0.00 in /  0 mm 0.0 W/m2 CLR
04:25 50.0 °F /  10 °C 50.0 °F /  10 °C 30.05 in /  1017.5 hPa SE 3.2 mph /  5.1 km/h 3.2 mph /  5.1 km/h 100 % 0.00 in /  0 mm 17.5 W/m2 CLR
04:30 50.2 °F /  10.1 °C 49.6 °F /  9.8 °C 30.05 in /  1017.5 hPa East 1.2 mph /  1.9 km/h   98 % 0.00 in /  0 mm 17.5 W/m2 CLR
04:35 49.8 °F /  9.9 °C 49.8 °F /  9.9 °C 30.05 in /  1017.5 hPa SSE 4.0 mph /  6.4 km/h 4.0 mph /  6.4 km/h 100 % 0.00 in /  0 mm 0.0 W/m2 CLR
04:40 50.0 °F /  10 °C 49.7 °F /  9.8 °C 30.05 in /  1017.5 hPa South 3.5 mph /  5.6 km/h 3.5 mph /  5.6 km/h 99 % 0.00 in /  0 mm 0.0 W/m2 CLR
04:45 50.4 °F /  10.2 °C 49.8 °F /  9.9 °C 30.05 in /  1017.5 hPa SSE 4.6 mph /  7.4 km/h 4.6 mph /  7.4 km/h 98 % 0.00 in /  0 mm 17.5 W/m2 CLR
04:50 50.4 °F /  10.2 °C 49.8 °F /  9.9 °C 30.05 in /  1017.5 hPa SSE 2.8 mph /  4.5 km/h 2.8 mph /  4.5 km/h 98 % 0.00 in /  0 mm 0.0 W/m2 CLR
04:55 50.0 °F /  10 °C 49.7 °F /  9.8 °C 30.05 in /  1017.5 hPa SSE 4.7 mph /  7.6 km/h 4.7 mph /  7.6 km/h 99 % 0.00 in /  0 mm 0.0 W/m2 CLR
05:00 50.0 °F /  10 °C 49.7 °F /  9.8 °C 30.05 in /  1017.5 hPa SSE 3.6 mph /  5.8 km/h 3.6 mph /  5.8 km/h 99 % 0.00 in /  0 mm 25.0 W/m2 OVC
05:05 50.0 °F /  10 °C 49.7 °F /  9.8 °C 30.05 in /  1017.5 hPa SSE 3.5 mph /  5.6 km/h 3.5 mph /  5.6 km/h 99 % 0.00 in /  0 mm 0.5 W/m2 OVC
05:10 50.0 °F /  10 °C 49.7 °F /  9.8 °C 30.04 in /  1017.2 hPa SE 3.7 mph /  6 km/h 3.7 mph /  6 km/h 99 % 0.00 in /  0 mm 20.0 W/m2 OVC
05:15 49.6 °F /  9.8 °C 49.6 °F /  9.8 °C 30.04 in /  1017.2 hPa SSE 3.5 mph /  5.6 km/h 3.5 mph /  5.6 km/h 100 % 0.00 in /  0 mm 25.0 W/m2 OVC
05:20 49.5 °F /  9.7 °C 49.5 °F /  9.7 °C 30.04 in /  1017.2 hPa SE 3.9 mph /  6.3 km/h 3.9 mph /  6.3 km/h 100 % 0.00 in /  0 mm 0.2 W/m2 OVC
05:25 49.5 °F /  9.7 °C 49.5 °F /  9.7 °C 30.03 in /  1016.8 hPa SSE 3.7 mph /  6 km/h 3.7 mph /  6 km/h 100 % 0.00 in /  0 mm 22.5 W/m2 OVC
05:30 49.3 °F /  9.6 °C 49.3 °F /  9.6 °C 30.04 in /  1017.2 hPa SSE 2.9 mph /  4.7 km/h 2.9 mph /  4.7 km/h 100 % 0.00 in /  0 mm 20.0 W/m2 OVC
05:35 49.3 °F /  9.6 °C 49.3 °F /  9.6 °C 30.04 in /  1017.2 hPa SE 3.5 mph /  5.6 km/h 3.5 mph /  5.6 km/h 100 % 0.00 in /  0 mm 4.6 W/m2 OVC
05:40 49.6 °F /  9.8 °C 49.6 °F /  9.8 °C 30.04 in /  1017.2 hPa SE 1.5 mph /  2.4 km/h 1.5 mph /  2.4 km/h 100 % 0.00 in /  0 mm 27.5 W/m2 OVC
05:45 49.6 °F /  9.8 °C 49.6 °F /  9.8 °C 30.04 in /  1017.2 hPa ESE 3.5 mph /  5.6 km/h 3.5 mph /  5.6 km/h 100 % 0.00 in /  0 mm 57.5 W/m2 OVC
05:50 49.8 °F /  9.9 °C 49.8 °F /  9.9 °C 30.04 in /  1017.2 hPa ESE 2.3 mph /  3.7 km/h 2.3 mph /  3.7 km/h 100 % 0.00 in /  0 mm 6.3 W/m2 OVC
05:55 49.8 °F /  9.9 °C 49.8 °F /  9.9 °C 30.04 in /  1017.2 hPa South 5.8 mph /  9.3 km/h 5.8 mph /  9.3 km/h 100 % 0.00 in /  0 mm 9.6 W/m2 OVC
06:00 50.0 °F /  10 °C 50.0 °F /  10 °C 30.04 in /  1017.2 hPa South 3.5 mph /  5.6 km/h 3.5 mph /  5.6 km/h 100 % 0.00 in /  0 mm 57.5 W/m2 OVC
06:06 50.2 °F /  10.1 °C 50.2 °F /  10.1 °C 30.04 in /  1017.2 hPa SSE 1.7 mph /  2.7 km/h 1.7 mph /  2.7 km/h 100 % 0.00 in /  0 mm 10.8 W/m2 OVC
06:11 50.5 °F /  10.3 °C 50.5 °F /  10.3 °C 30.03 in /  1016.8 hPa SE 2.3 mph /  3.7 km/h 2.3 mph /  3.7 km/h 100 % 0.00 in /  0 mm 77.5 W/m2 OVC
06:16 50.7 °F /  10.4 °C 50.4 °F /  10.2 °C 30.03 in /  1016.8 hPa ESE 4.0 mph /  6.4 km/h 4.0 mph /  6.4 km/h 99 % 0.00 in /  0 mm 16.5 W/m2 OVC
06:21 51.3 °F /  10.7 °C 50.7 °F /  10.4 °C 30.04 in /  1017.2 hPa South 5.7 mph /  9.2 km/h 5.7 mph /  9.2 km/h 98 % 0.00 in /  0 mm 19.2 W/m2 OVC
06:26 51.3 °F /  10.7 °C 50.7 °F /  10.4 °C 30.03 in /  1016.8 hPa SSE 5.8 mph /  9.3 km/h 5.8 mph /  9.3 km/h 98 % 0.00 in /  0 mm 21.4 W/m2 OVC
06:31 51.4 °F /  10.8 °C 50.6 °F /  10.3 °C 30.04 in /  1017.2 hPa ESE 4.3 mph /  6.9 km/h 4.3 mph /  6.9 km/h 97 % 0.00 in /  0 mm 105.0 W/m2 OVC
06:36 51.8 °F /  11 °C 51.3 °F /  10.7 °C 30.04 in /  1017.2 hPa SSE 5.0 mph /  8 km/h 5.0 mph /  8 km/h 98 % 0.00 in /  0 mm 49.5 W/m2 OVC
06:41 52.5 °F /  11.4 °C 51.1 °F /  10.6 °C 30.04 in /  1017.2 hPa East 2.3 mph /  3.7 km/h 2.3 mph /  3.7 km/h 95 % 0.00 in /  0 mm 63.5 W/m2 OVC
06:46 53.4 °F /  11.9 °C 51.4 °F /  10.8 °C 30.03 in /  1016.8 hPa SE 6.6 mph /  10.6 km/h 6.6 mph /  10.6 km/h 93 % 0.00 in /  0 mm 125.0 W/m2 OVC
06:51 54.0 °F /  12.2 °C 51.7 °F /  10.9 °C 30.03 in /  1016.8 hPa SSE 4.6 mph /  7.4 km/h 4.6 mph /  7.4 km/h 92 % 0.00 in /  0 mm 79.7 W/m2 OVC
06:56 54.3 °F /  12.4 °C 52.0 °F /  11.1 °C 30.03 in /  1016.8 hPa ESE 3.5 mph /  5.6 km/h 3.5 mph /  5.6 km/h 92 % 0.00 in /  0 mm 59.7 W/m2 OVC
07:01 54.3 °F /  12.4 °C 51.7 °F /  10.9 °C 30.03 in /  1016.8 hPa South 4.6 mph /  7.4 km/h 4.6 mph /  7.4 km/h 91 % 0.00 in /  0 mm 110.0 W/m2 OVC
07:06 54.0 °F /  12.2 °C 51.7 °F /  10.9 °C 30.03 in /  1016.8 hPa SE 4.7 mph /  7.6 km/h 4.7 mph /  7.6 km/h 92 % 0.00 in /  0 mm 49.0 W/m2 OVC
07:11 54.0 °F /  12.2 °C 52.0 °F /  11.1 °C 30.03 in /  1016.8 hPa ENE 2.5 mph /  4 km/h 2.5 mph /  4 km/h 93 % 0.00 in /  0 mm 53.6 W/m2 OVC
07:16 54.0 °F /  12.2 °C 51.4 °F /  10.8 °C 30.03 in /  1016.8 hPa SE 2.8 mph /  4.5 km/h 2.8 mph /  4.5 km/h 91 % 0.00 in /  0 mm 107.5 W/m2 OVC
07:21 54.0 °F /  12.2 °C 51.4 °F /  10.8 °C 30.03 in /  1016.8 hPa SE 5.9 mph /  9.5 km/h 5.9 mph /  9.5 km/h 91 % 0.00 in /  0 mm 52.3 W/m2 OVC
07:26 53.8 °F /  12.1 °C 51.5 °F /  10.8 °C 30.03 in /  1016.8 hPa ESE 7.3 mph /  11.7 km/h 7.3 mph /  11.7 km/h 92 % 0.00 in /  0 mm 53.9 W/m2 OVC
07:31 53.6 °F /  12 °C 51.3 °F /  10.7 °C 30.03 in /  1016.8 hPa SE 6.8 mph /  10.9 km/h 6.8 mph /  10.9 km/h 92 % 0.00 in /  0 mm 145.0 W/m2 OVC
07:36 53.8 °F /  12.1 °C 51.8 °F /  11 °C 30.03 in /  1016.8 hPa SSE 5.8 mph /  9.3 km/h 5.8 mph /  9.3 km/h 93 % 0.00 in /  0 mm 74.1 W/m2 OVC
07:41 53.8 °F /  12.1 °C 51.8 °F /  11 °C 30.03 in /  1016.8 hPa SE 1.2 mph /  1.9 km/h 1.2 mph /  1.9 km/h 93 % 0.00 in /  0 mm 101.3 W/m2 OVC
07:46 54.1 °F /  12.3 °C 52.5 °F /  11.4 °C 30.03 in /  1016.8 hPa ESE 3.5 mph /  5.6 km/h 3.5 mph /  5.6 km/h 94 % 0.00 in /  0 mm 165.0 W/m2 OVC
07:52 54.3 °F /  12.4 °C 52.0 °F /  11.1 °C 30.03 in /  1016.8 hPa SE 4.6 mph /  7.4 km/h 4.6 mph /  7.4 km/h 92 % 0.00 in /  0 mm 207.8 W/m2 BKN
07:57 54.9 °F /  12.7 °C 52.6 °F /  11.4 °C 30.03 in /  1016.8 hPa SSE 5.2 mph /  8.4 km/h 5.2 mph /  8.4 km/h 92 % 0.00 in /  0 mm 169.3 W/m2 BKN
08:02 55.4 °F /  13 °C 52.5 °F /  11.4 °C 30.03 in /  1016.8 hPa SSE 5.8 mph /  9.3 km/h 5.8 mph /  9.3 km/h 90 % 0.00 in /  0 mm 257.5 W/m2 BKN
08:07 55.4 °F /  13 °C 52.5 °F /  11.4 °C 30.03 in /  1016.8 hPa ESE 2.3 mph /  3.7 km/h 2.3 mph /  3.7 km/h 90 % 0.00 in /  0 mm 103.8 W/m2 BKN
08:12 55.6 °F /  13.1 °C 52.7 °F /  11.5 °C 30.03 in /  1016.8 hPa SE 3.5 mph /  5.6 km/h 3.5 mph /  5.6 km/h 90 % 0.00 in /  0 mm 179.4 W/m2 BKN
08:17 55.8 °F /  13.2 °C 52.9 °F /  11.6 °C 30.03 in /  1016.8 hPa SE 6.9 mph /  11.1 km/h 6.9 mph /  11.1 km/h 90 % 0.00 in /  0 mm 300.0 W/m2 BKN
08:22 56.1 °F /  13.4 °C 52.6 °F /  11.4 °C 30.03 in /  1016.8 hPa South 3.5 mph /  5.6 km/h 3.5 mph /  5.6 km/h 88 % 0.00 in /  0 mm 179.7 W/m2 BKN
08:27 56.1 °F /  13.4 °C 53.2 °F /  11.8 °C 30.03 in /  1016.8 hPa SSE 4.6 mph /  7.4 km/h 4.6 mph /  7.4 km/h 90 % 0.00 in /  0 mm 182.5 W/m2 BKN
08:32 56.3 °F /  13.5 °C 52.8 °F /  11.6 °C 30.03 in /  1016.8 hPa SE 4.6 mph /  7.4 km/h 4.6 mph /  7.4 km/h 88 % 0.00 in /  0 mm 300.0 W/m2 BKN
08:37 57.0 °F /  13.9 °C 53.8 °F /  12.1 °C 30.03 in /  1016.8 hPa SE 3.7 mph /  6 km/h 3.7 mph /  6 km/h 89 % 0.00 in /  0 mm 457.8 W/m2 BKN
08:42 57.6 °F /  14.2 °C 54.0 °F /  12.2 °C 30.03 in /  1016.8 hPa SE 6.9 mph /  11.1 km/h 6.9 mph /  11.1 km/h 88 % 0.00 in /  0 mm 596.5 W/m2 SCT
08:47 57.9 °F /  14.4 °C 54.1 °F /  12.3 °C 30.03 in /  1016.8 hPa South 4.6 mph /  7.4 km/h 4.6 mph /  7.4 km/h 87 % 0.00 in /  0 mm 367.5 W/m2 FEW
08:52 58.8 °F /  14.9 °C 54.3 °F /  12.4 °C 30.03 in /  1016.8 hPa SE 2.3 mph /  3.7 km/h 2.3 mph /  3.7 km/h 85 % 0.00 in /  0 mm 601.3 W/m2 FEW
08:57 59.2 °F /  15.1 °C 54.3 °F /  12.4 °C 30.03 in /  1016.8 hPa SSE 3.6 mph /  5.8 km/h 3.6 mph /  5.8 km/h 84 % 0.00 in /  0 mm 562.1 W/m2 FEW
09:02 59.7 °F /  15.4 °C 54.2 °F /  12.3 °C 30.03 in /  1016.8 hPa SSE 8.1 mph /  13 km/h 8.1 mph /  13 km/h 82 % 0.00 in /  0 mm 400.0 W/m2 FEW
09:07 60.3 °F /  15.7 °C 54.4 °F /  12.4 °C 30.03 in /  1016.8 hPa South 3.5 mph /  5.6 km/h 3.5 mph /  5.6 km/h 81 % 0.00 in /  0 mm 485.7 W/m2 FEW
09:12 60.6 °F /  15.9 °C 54.8 °F /  12.7 °C 30.03 in /  1016.8 hPa SSE 5.1 mph /  8.2 km/h 5.1 mph /  8.2 km/h 81 % 0.00 in /  0 mm 492.8 W/m2 SCT
09:17 61.3 °F /  16.3 °C 54.4 °F /  12.4 °C 30.03 in /  1016.8 hPa SE 6.9 mph /  11.1 km/h 6.9 mph /  11.1 km/h 78 % 0.00 in /  0 mm 350.0 W/m2 SCT
09:22 61.7 °F /  16.5 °C 55.5 °F /  13.1 °C 30.02 in /  1016.5 hPa South 6.2 mph /  10 km/h 6.2 mph /  10 km/h 80 % 0.00 in /  0 mm 404.6 W/m2 BKN
09:27 62.1 °F /  16.7 °C 56.2 °F /  13.4 °C 30.02 in /  1016.5 hPa South 5.8 mph /  9.3 km/h 5.8 mph /  9.3 km/h 81 % 0.00 in /  0 mm 487.1 W/m2 BKN
09:32 63.7 °F /  17.6 °C 56.3 °F /  13.5 °C 30.02 in /  1016.5 hPa SE 6.9 mph /  11.1 km/h 6.9 mph /  11.1 km/h 77 % 0.00 in /  0 mm 410.0 W/m2 SCT
09:38 64.8 °F /  18.2 °C 57.4 °F /  14.1 °C 30.01 in /  1016.1 hPa East 8.3 mph /  13.4 km/h 8.3 mph /  13.4 km/h 77 % 0.00 in /  0 mm 598.8 W/m2 SCT
09:43 65.1 °F /  18.4 °C 57.4 °F /  14.1 °C 30.00 in /  1015.8 hPa SE 5.4 mph /  8.7 km/h 5.4 mph /  8.7 km/h 76 % 0.00 in /  0 mm 748.0 W/m2 FEW
09:48 66.4 °F /  19.1 °C 57.8 °F /  14.3 °C 30.00 in /  1015.8 hPa South 6.2 mph /  10 km/h 6.2 mph /  10 km/h 74 % 0.00 in /  0 mm 455.0 W/m2 FEW
09:53 65.8 °F /  18.8 °C 56.6 °F /  13.7 °C 30.00 in /  1015.8 hPa SSW 4.0 mph /  6.4 km/h 4.0 mph /  6.4 km/h 72 % 0.00 in /  0 mm 609.4 W/m2 FEW
09:58 65.1 °F /  18.4 °C 55.9 °F /  13.3 °C 30.00 in /  1015.8 hPa NNE 6.9 mph /  11.1 km/h 6.9 mph /  11.1 km/h 72 % 0.00 in /  0 mm 492.2 W/m2 SCT
10:03 64.6 °F /  18.1 °C 56.5 °F /  13.6 °C 30.00 in /  1015.8 hPa SSE 3.6 mph /  5.8 km/h 3.6 mph /  5.8 km/h 75 % 0.00 in /  0 mm 315.0 W/m2 BKN
10:08 64.4 °F /  18 °C 55.2 °F /  12.9 °C 30.00 in /  1015.8 hPa SE 4.6 mph /  7.4 km/h 4.6 mph /  7.4 km/h 72 % 0.00 in /  0 mm 404.3 W/m2 BKN
10:13 64.4 °F /  18 °C 57.0 °F /  13.9 °C 30.00 in /  1015.8 hPa WNW 7.0 mph /  11.3 km/h 7.0 mph /  11.3 km/h 77 % 0.00 in /  0 mm 407.4 W/m2 BKN
10:18 64.2 °F /  17.9 °C 55.4 °F /  13 °C 30.00 in /  1015.8 hPa South 3.5 mph /  5.6 km/h 3.5 mph /  5.6 km/h 73 % 0.00 in /  0 mm 295.0 W/m2 BKN
10:23 64.2 °F /  17.9 °C 55.4 °F /  13 °C 30.00 in /  1015.8 hPa SSE 3.5 mph /  5.6 km/h 3.5 mph /  5.6 km/h 73 % 0.00 in /  0 mm 348.3 W/m2 BKN
10:28 64.4 °F /  18 °C 55.6 °F /  13.1 °C 30.01 in /  1016.1 hPa SSE 4.1 mph /  6.6 km/h 4.1 mph /  6.6 km/h 73 % 0.00 in /  0 mm 379.7 W/m2 BKN
10:33 64.2 °F /  17.9 °C 56.5 °F /  13.6 °C 30.01 in /  1016.1 hPa East 5.8 mph /  9.3 km/h 5.8 mph /  9.3 km/h 76 % 0.00 in /  0 mm 287.5 W/m2 BKN
10:38 64.4 °F /  18 °C 55.9 °F /  13.3 °C 30.01 in /  1016.1 hPa South 3.2 mph /  5.1 km/h 3.2 mph /  5.1 km/h 74 % 0.00 in /  0 mm 302.5 W/m2 BKN
10:43 64.6 °F /  18.1 °C 55.7 °F /  13.2 °C 30.01 in /  1016.1 hPa SSE 6.2 mph /  10 km/h 6.2 mph /  10 km/h 73 % 0.00 in /  0 mm 435.4 W/m2 BKN
10:48 64.8 °F /  18.2 °C 55.1 °F /  12.8 °C 30.00 in /  1015.8 hPa SE 3.5 mph /  5.6 km/h 3.5 mph /  5.6 km/h 71 % 0.00 in /  0 mm 342.5 W/m2 BKN
10:53 65.1 °F /  18.4 °C 55.5 °F /  13.1 °C 30.00 in /  1015.8 hPa South 5.8 mph /  9.3 km/h 5.8 mph /  9.3 km/h 71 % 0.00 in /  0 mm 510.0 W/m2 BKN
10:58 66.0 °F /  18.9 °C 56.0 °F /  13.3 °C 30.00 in /  1015.8 hPa SSE 8.1 mph /  13 km/h 8.1 mph /  13 km/h 70 % 0.00 in /  0 mm 849.0 W/m2 FEW
11:03 66.6 °F /  19.2 °C 56.1 °F /  13.4 °C 30.00 in /  1015.8 hPa NNE 8.1 mph /  13 km/h 8.1 mph /  13 km/h 69 % 0.00 in /  0 mm 465.0 W/m2 CLR
11:08 66.7 °F /  19.3 °C 55.8 °F /  13.2 °C 30.00 in /  1015.8 hPa SE 5.1 mph /  8.2 km/h 5.1 mph /  8.2 km/h 68 % 0.00 in /  0 mm 857.0 W/m2 CLR
11:13 67.3 °F /  19.6 °C 55.5 °F /  13.1 °C 30.00 in /  1015.8 hPa West 1.2 mph /  1.9 km/h   66 % 0.00 in /  0 mm 860.0 W/m2 CLR
11:18 67.8 °F /  19.9 °C 55.6 °F /  13.1 °C 30.00 in /  1015.8 hPa NNW 9.2 mph /  14.8 km/h 9.2 mph /  14.8 km/h 65 % 0.00 in /  0 mm 470.0 W/m2 CLR
11:23 68.2 °F /  20.1 °C 55.1 °F /  12.8 °C 30.00 in /  1015.8 hPa SE 5.1 mph /  8.2 km/h 5.1 mph /  8.2 km/h 63 % 0.00 in /  0 mm 867.0 W/m2 CLR
11:29 68.4 °F /  20.2 °C 55.3 °F /  12.9 °C 30.00 in /  1015.8 hPa SE 14.4 mph /  23.2 km/h 14.4 mph /  23.2 km/h 63 % 0.00 in /  0 mm 706.7 W/m2 CLR
11:34 68.5 °F /  20.3 °C 56.3 °F /  13.5 °C 30.00 in /  1015.8 hPa South 9.2 mph /  14.8 km/h 9.2 mph /  14.8 km/h 65 % 0.00 in /  0 mm 507.5 W/m2 CLR
11:39 68.9 °F /  20.5 °C 54.9 °F /  12.7 °C 30.00 in /  1015.8 hPa SSW 11.5 mph /  18.5 km/h 11.5 mph /  18.5 km/h 61 % 0.00 in /  0 mm 602.5 W/m2 CLR
11:44 69.1 °F /  20.6 °C 56.0 °F /  13.3 °C 30.00 in /  1015.8 hPa WSW 6.1 mph /  9.8 km/h 6.1 mph /  9.8 km/h 63 % 0.00 in /  0 mm 875.0 W/m2 CLR
11:49 69.4 °F /  20.8 °C 54.9 °F /  12.7 °C 29.99 in /  1015.5 hPa SSW 5.8 mph /  9.3 km/h 5.8 mph /  9.3 km/h 60 % 0.00 in /  0 mm 512.5 W/m2 CLR
11:54 69.3 °F /  20.7 °C 55.2 °F /  12.9 °C 29.99 in /  1015.5 hPa South 8.3 mph /  13.4 km/h 8.3 mph /  13.4 km/h 61 % 0.00 in /  0 mm 565.0 W/m2 FEW
11:59 69.6 °F /  20.9 °C 55.6 °F /  13.1 °C 29.99 in /  1015.5 hPa SSE 11.9 mph /  19.2 km/h 11.9 mph /  19.2 km/h 61 % 0.00 in /  0 mm 878.0 W/m2 FEW
12:04 69.8 °F /  21 °C 55.3 °F /  12.9 °C 29.99 in /  1015.5 hPa WSW 5.8 mph /  9.3 km/h 5.8 mph /  9.3 km/h 60 % 0.00 in /  0 mm 545.0 W/m2 CLR
12:09 70.0 °F /  21.1 °C 54.0 °F /  12.2 °C 29.99 in /  1015.5 hPa ESE 1.2 mph /  1.9 km/h 1.2 mph /  1.9 km/h 57 % 0.00 in /  0 mm 801.8 W/m2 CLR
12:14 69.6 °F /  20.9 °C 54.7 °F /  12.6 °C 29.99 in /  1015.5 hPa SE 8.1 mph /  13 km/h 8.1 mph /  13 km/h 59 % 0.00 in /  0 mm 878.0 W/m2 CLR
12:19 70.0 °F /  21.1 °C 54.5 °F /  12.5 °C 29.98 in /  1015.1 hPa South 9.7 mph /  15.6 km/h 9.7 mph /  15.6 km/h 58 % 0.00 in /  0 mm 540.0 W/m2 CLR
12:24 70.5 °F /  21.4 °C 55.0 °F /  12.8 °C 29.98 in /  1015.1 hPa WSW 9.7 mph /  15.6 km/h 9.7 mph /  15.6 km/h 58 % 0.00 in /  0 mm 876.0 W/m2 CLR
12:29 70.5 °F /  21.4 °C 54.5 °F /  12.5 °C 29.98 in /  1015.1 hPa SSE 12.7 mph /  20.4 km/h 12.7 mph /  20.4 km/h 57 % 0.00 in /  0 mm 805.5 W/m2 CLR
12:34 70.0 °F /  21.1 °C 54.5 °F /  12.5 °C 29.98 in /  1015.1 hPa SSE 13.8 mph /  22.2 km/h 13.8 mph /  22.2 km/h 58 % 0.00 in /  0 mm 442.5 W/m2 CLR
12:39 69.4 °F /  20.8 °C 54.5 °F /  12.5 °C 29.98 in /  1015.1 hPa South 8.1 mph /  13 km/h 8.1 mph /  13 km/h 59 % 0.00 in /  0 mm 482.5 W/m2 FEW
12:44 69.8 °F /  21 °C 55.3 °F /  12.9 °C 29.97 in /  1014.8 hPa SSE 6.9 mph /  11.1 km/h 6.9 mph /  11.1 km/h 60 % 0.00 in /  0 mm 656.1 W/m2 SCT
12:49 70.5 °F /  21.4 °C 56.9 °F /  13.8 °C 29.97 in /  1014.8 hPa SE 2.5 mph /  4 km/h 2.5 mph /  4 km/h 62 % 0.00 in /  0 mm 440.0 W/m2 FEW
12:54 70.5 °F /  21.4 °C 56.4 °F /  13.6 °C 29.97 in /  1014.8 hPa SSE 3.7 mph /  6 km/h 3.7 mph /  6 km/h 61 % 0.00 in /  0 mm 517.5 W/m2 SCT
13:00 71.2 °F /  21.8 °C 55.7 °F /  13.2 °C 29.97 in /  1014.8 hPa South 5.8 mph /  9.3 km/h 5.8 mph /  9.3 km/h 58 % 0.00 in /  0 mm 859.0 W/m2 FEW
13:05 71.1 °F /  21.7 °C 57.8 °F /  14.3 °C 29.97 in /  1014.8 hPa ENE 7.7 mph /  12.4 km/h 7.7 mph /  12.4 km/h 63 % 0.00 in /  0 mm 427.5 W/m2 FEW
13:10 71.1 °F /  21.7 °C 57.8 °F /  14.3 °C 29.97 in /  1014.8 hPa SSE 8.3 mph /  13.4 km/h 8.3 mph /  13.4 km/h 63 % 0.00 in /  0 mm 610.2 W/m2 FEW
13:15 70.7 °F /  21.5 °C 55.2 °F /  12.9 °C 29.97 in /  1014.8 hPa SSE 3.5 mph /  5.6 km/h 3.5 mph /  5.6 km/h 58 % 0.00 in /  0 mm 762.3 W/m2 FEW
13:20 70.7 °F /  21.5 °C 54.7 °F /  12.6 °C 29.97 in /  1014.8 hPa South 5.7 mph /  9.2 km/h 5.7 mph /  9.2 km/h 57 % 0.00 in /  0 mm 462.5 W/m2 FEW
13:25 70.7 °F /  21.5 °C 55.2 °F /  12.9 °C 29.97 in /  1014.8 hPa South 8.3 mph /  13.4 km/h 8.3 mph /  13.4 km/h 58 % 0.00 in /  0 mm 605.6 W/m2 SCT
13:30 70.7 °F /  21.5 °C 56.1 °F /  13.4 °C 29.97 in /  1014.8 hPa ENE 8.1 mph /  13 km/h 8.1 mph /  13 km/h 60 % 0.00 in /  0 mm 635.0 W/m2 SCT
13:35 70.9 °F /  21.6 °C 55.4 °F /  13 °C 29.97 in /  1014.8 hPa South 2.6 mph /  4.2 km/h 2.6 mph /  4.2 km/h 58 % 0.00 in /  0 mm 460.0 W/m2 SCT
13:40 70.7 °F /  21.5 °C 55.2 °F /  12.9 °C 29.97 in /  1014.8 hPa SSE 5.8 mph /  9.3 km/h 5.8 mph /  9.3 km/h 58 % 0.00 in /  0 mm 691.0 W/m2 FEW
13:45 71.2 °F /  21.8 °C 54.7 °F /  12.6 °C 29.97 in /  1014.8 hPa SW 2.8 mph /  4.5 km/h 2.8 mph /  4.5 km/h 56 % 0.00 in /  0 mm 666.4 W/m2 FEW
13:50 71.2 °F /  21.8 °C 54.7 °F /  12.6 °C 29.97 in /  1014.8 hPa SSE 5.0 mph /  8 km/h 5.0 mph /  8 km/h 56 % 0.00 in /  0 mm 512.5 W/m2 FEW
13:55 71.4 °F /  21.9 °C 55.4 °F /  13 °C 29.96 in /  1014.4 hPa ESE 7.0 mph /  11.3 km/h 7.0 mph /  11.3 km/h 57 % 0.00 in /  0 mm 742.4 W/m2 FEW
14:00 71.4 °F /  21.9 °C 54.4 °F /  12.4 °C 29.96 in /  1014.4 hPa SSE 10.4 mph /  16.7 km/h 10.4 mph /  16.7 km/h 55 % 0.00 in /  0 mm 481.1 W/m2 FEW
14:05 71.6 °F /  22 °C 55.1 °F /  12.8 °C 29.96 in /  1014.4 hPa ESE 5.8 mph /  9.3 km/h 5.8 mph /  9.3 km/h 56 % 0.00 in /  0 mm 600.0 W/m2 CLR
14:10 71.6 °F /  22 °C 55.6 °F /  13.1 °C 29.96 in /  1014.4 hPa SSE 3.5 mph /  5.6 km/h 3.5 mph /  5.6 km/h 57 % 0.00 in /  0 mm 778.0 W/m2 CLR
14:15 72.3 °F /  22.4 °C 54.2 °F /  12.3 °C 29.96 in /  1014.4 hPa SE 12.7 mph /  20.4 km/h 12.7 mph /  20.4 km/h 53 % 0.00 in /  0 mm 772.0 W/m2 CLR
14:20 72.5 °F /  22.5 °C 55.9 °F /  13.3 °C 29.95 in /  1014.1 hPa SSE 1.4 mph /  2.3 km/h 1.4 mph /  2.3 km/h 56 % 0.00 in /  0 mm 762.0 W/m2 CLR
14:25 73.0 °F /  22.8 °C 54.9 °F /  12.7 °C 29.95 in /  1014.1 hPa South 10.9 mph /  17.5 km/h 10.9 mph /  17.5 km/h 53 % 0.00 in /  0 mm 753.0 W/m2 CLR
14:30 72.3 °F /  22.4 °C 54.7 °F /  12.6 °C 29.95 in /  1014.1 hPa SSE 10.5 mph /  16.9 km/h 10.5 mph /  16.9 km/h 54 % 0.00 in /  0 mm 395.0 W/m2 FEW
14:35 71.4 °F /  21.9 °C 54.4 °F /  12.4 °C 29.95 in /  1014.1 hPa SE 11.5 mph /  18.5 km/h 11.5 mph /  18.5 km/h 55 % 0.00 in /  0 mm 420.0 W/m2 BKN
14:40 71.1 °F /  21.7 °C 54.6 °F /  12.6 °C 29.95 in /  1014.1 hPa SSE 4.8 mph /  7.7 km/h 4.8 mph /  7.7 km/h 56 % 0.00 in /  0 mm 369.9 W/m2 BKN
14:46 70.7 °F /  21.5 °C 54.7 °F /  12.6 °C 29.95 in /  1014.1 hPa SE 6.8 mph /  10.9 km/h 6.8 mph /  10.9 km/h 57 % 0.00 in /  0 mm 342.5 W/m2 BKN
14:51 70.7 °F /  21.5 °C 54.7 °F /  12.6 °C 29.95 in /  1014.1 hPa West 2.2 mph /  3.5 km/h 2.2 mph /  3.5 km/h 57 % 0.00 in /  0 mm 335.9 W/m2 BKN
14:56 71.2 °F /  21.8 °C 54.7 °F /  12.6 °C 29.95 in /  1014.1 hPa SSE 8.1 mph /  13 km/h 8.1 mph /  13 km/h 56 % 0.00 in /  0 mm 454.1 W/m2 BKN
15:01 71.6 °F /  22 °C 54.1 °F /  12.3 °C 29.95 in /  1014.1 hPa SSW 6.9 mph /  11.1 km/h 6.9 mph /  11.1 km/h 54 % 0.00 in /  0 mm 445.0 W/m2 BKN
15:06 71.6 °F /  22 °C 55.1 °F /  12.8 °C 29.95 in /  1014.1 hPa SW 1.7 mph /  2.7 km/h 1.7 mph /  2.7 km/h 56 % 0.00 in /  0 mm 401.0 W/m2 BKN
15:11 71.8 °F /  22.1 °C 56.2 °F /  13.4 °C 29.95 in /  1014.1 hPa SW 2.3 mph /  3.7 km/h 2.3 mph /  3.7 km/h 58 % 0.00 in /  0 mm 403.5 W/m2 BKN
15:16 72.0 °F /  22.2 °C 55.4 °F /  13 °C 29.95 in /  1014.1 hPa South 6.8 mph /  10.9 km/h 6.8 mph /  10.9 km/h 56 % 0.00 in /  0 mm 367.5 W/m2 BKN
15:21 72.1 °F /  22.3 °C 55.6 °F /  13.1 °C 29.95 in /  1014.1 hPa SSE 10.4 mph /  16.7 km/h 10.4 mph /  16.7 km/h 56 % 0.00 in /  0 mm 381.4 W/m2 BKN
15:26 72.0 °F /  22.2 °C 55.4 °F /  13 °C 29.95 in /  1014.1 hPa SE 6.9 mph /  11.1 km/h 6.9 mph /  11.1 km/h 56 % 0.00 in /  0 mm 296.0 W/m2 BKN
15:31 71.4 °F /  21.9 °C 55.9 °F /  13.3 °C 29.94 in /  1013.8 hPa WSW 5.8 mph /  9.3 km/h 5.8 mph /  9.3 km/h 58 % 0.00 in /  0 mm 380.0 W/m2 BKN
15:36 71.1 °F /  21.7 °C 55.5 °F /  13.1 °C 29.94 in /  1013.8 hPa SW 3.6 mph /  5.8 km/h 3.6 mph /  5.8 km/h 58 % 0.00 in /  0 mm 239.6 W/m2 BKN
15:41 70.7 °F /  21.5 °C 53.7 °F /  12.1 °C 29.94 in /  1013.8 hPa SW 3.5 mph /  5.6 km/h 3.5 mph /  5.6 km/h 55 % 0.00 in /  0 mm 285.7 W/m2 BKN
15:46 70.7 °F /  21.5 °C 53.7 °F /  12.1 °C 29.94 in /  1013.8 hPa SE 3.7 mph /  6 km/h 3.7 mph /  6 km/h 55 % 0.00 in /  0 mm 345.0 W/m2 BKN
15:51 71.1 °F /  21.7 °C 56.0 °F /  13.3 °C 29.94 in /  1013.8 hPa South 1.2 mph /  1.9 km/h   59 % 0.00 in /  0 mm 390.0 W/m2 BKN
15:56 71.8 °F /  22.1 °C 55.2 °F /  12.9 °C 29.94 in /  1013.8 hPa South 3.5 mph /  5.6 km/h 3.5 mph /  5.6 km/h 56 % 0.00 in /  0 mm 385.4 W/m2 BKN
16:01 71.8 °F /  22.1 °C 55.2 °F /  12.9 °C 29.94 in /  1013.8 hPa WSW 2.3 mph /  3.7 km/h 2.3 mph /  3.7 km/h 56 % 0.00 in /  0 mm 415.0 W/m2 BKN
16:06 72.0 °F /  22.2 °C 53.9 °F /  12.2 °C 29.94 in /  1013.8 hPa West 9.2 mph /  14.8 km/h 9.2 mph /  14.8 km/h 53 % 0.00 in /  0 mm 265.9 W/m2 BKN
16:11 71.6 °F /  22 °C 53.6 °F /  12 °C 29.93 in /  1013.4 hPa SSE 4.8 mph /  7.7 km/h 4.8 mph /  7.7 km/h 53 % 0.00 in /  0 mm 215.4 W/m2 BKN
16:17 71.4 °F /  21.9 °C 55.9 °F /  13.3 °C 29.94 in /  1013.8 hPa South 6.9 mph /  11.1 km/h 6.9 mph /  11.1 km/h 58 % 0.00 in /  0 mm 362.5 W/m2 BKN
16:22 71.6 °F /  22 °C 55.1 °F /  12.8 °C 29.93 in /  1013.4 hPa South 1.7 mph /  2.7 km/h 1.7 mph /  2.7 km/h 56 % 0.00 in /  0 mm 497.0 W/m2 BKN
16:27 72.7 °F /  22.6 °C 55.1 °F /  12.8 °C 29.93 in /  1013.4 hPa SSW 1.2 mph /  1.9 km/h 1.2 mph /  1.9 km/h 54 % 0.00 in /  0 mm 484.0 W/m2 FEW
16:32 71.8 °F /  22.1 °C 54.7 °F /  12.6 °C 29.93 in /  1013.4 hPa SSE 1.7 mph /  2.7 km/h 1.7 mph /  2.7 km/h 55 % 0.00 in /  0 mm 420.0 W/m2 SCT
16:37 72.9 °F /  22.7 °C 56.7 °F /  13.7 °C 29.93 in /  1013.4 hPa SW 4.0 mph /  6.4 km/h 4.0 mph /  6.4 km/h 57 % 0.00 in /  0 mm 662.5 W/m2 BKN
16:42 73.2 °F /  22.9 °C 55.1 °F /  12.8 °C 29.93 in /  1013.4 hPa SSE 0.3 mph /  0.5 km/h   53 % 0.00 in /  0 mm 442.0 W/m2 SCT
16:47 72.3 °F /  22.4 °C 54.7 °F /  12.6 °C 29.93 in /  1013.4 hPa East 12.0 mph /  19.3 km/h 12.0 mph /  19.3 km/h 54 % 0.00 in /  0 mm 307.5 W/m2 FEW
16:52 72.1 °F /  22.3 °C 55.6 °F /  13.1 °C 29.93 in /  1013.4 hPa SSW 5.8 mph /  9.3 km/h 5.8 mph /  9.3 km/h 56 % 0.00 in /  0 mm 310.0 W/m2 BKN
16:57 72.1 °F /  22.3 °C 54.6 °F /  12.6 °C 29.93 in /  1013.4 hPa SE 3.5 mph /  5.6 km/h   54 % 0.00 in /  0 mm 258.9 W/m2 BKN
17:02 72.7 °F /  22.6 °C 54.6 °F /  12.6 °C 29.93 in /  1013.4 hPa West 8.1 mph /  13 km/h 8.1 mph /  13 km/h 53 % 0.00 in /  0 mm 280.0 W/m2 BKN
17:07 71.6 °F /  22 °C 57.0 °F /  13.9 °C 29.93 in /  1013.4 hPa Calm     60 % 0.00 in /  0 mm 84.6 W/m2 BKN
17:12 71.1 °F /  21.7 °C 55.1 °F /  12.8 °C 29.92 in /  1013.1 hPa SSW 1.7 mph /  2.7 km/h 1.7 mph /  2.7 km/h 57 % 0.00 in /  0 mm 193.8 W/m2 BKN
17:17 71.4 °F /  21.9 °C 53.9 °F /  12.2 °C 29.92 in /  1013.1 hPa SW 2.9 mph /  4.7 km/h 2.9 mph /  4.7 km/h 54 % 0.00 in /  0 mm 315.0 W/m2 BKN
17:22 71.2 °F /  21.8 °C 55.2 °F /  12.9 °C 29.92 in /  1013.1 hPa NW 2.9 mph /  4.7 km/h 2.9 mph /  4.7 km/h 57 % 0.00 in /  0 mm 427.5 W/m2 BKN
17:27 71.8 °F /  22.1 °C 56.7 °F /  13.7 °C 29.92 in /  1013.1 hPa Calm     59 % 0.00 in /  0 mm 67.0 W/m2 OVC
17:32 72.5 °F /  22.5 °C 55.4 °F /  13 °C 29.92 in /  1013.1 hPa South 2.3 mph /  3.7 km/h 2.3 mph /  3.7 km/h 55 % 0.00 in /  0 mm 467.5 W/m2 OVC
17:37 73.4 °F /  23 °C 55.7 °F /  13.2 °C 29.92 in /  1013.1 hPa North 10.8 mph /  17.4 km/h 10.8 mph /  17.4 km/h 54 % 0.00 in /  0 mm 242.5 W/m2 OVC
17:42 71.4 °F /  21.9 °C 56.8 °F /  13.8 °C 29.92 in /  1013.1 hPa NNE 2.3 mph /  3.7 km/h 2.3 mph /  3.7 km/h 60 % 0.00 in /  0 mm 45.4 W/m2 OVC
17:47 70.2 °F /  21.2 °C 54.7 °F /  12.6 °C 29.91 in /  1012.8 hPa East 1.2 mph /  1.9 km/h 1.2 mph /  1.9 km/h 58 % 0.00 in /  0 mm 317.5 W/m2 OVC
17:52 70.3 °F /  21.3 °C 54.4 °F /  12.4 °C 29.91 in /  1012.8 hPa South 4.6 mph /  7.4 km/h 4.6 mph /  7.4 km/h 57 % 0.00 in /  0 mm 215.0 W/m2 OVC
17:57 70.3 °F /  21.3 °C 55.3 °F /  12.9 °C 29.92 in /  1013.1 hPa WNW 4.6 mph /  7.4 km/h 4.6 mph /  7.4 km/h 59 % 0.00 in /  0 mm 39.8 W/m2 OVC
18:03 69.8 °F /  21 °C 54.4 °F /  12.4 °C 29.91 in /  1012.8 hPa West 2.3 mph /  3.7 km/h 2.3 mph /  3.7 km/h 58 % 0.00 in /  0 mm 147.5 W/m2 OVC
18:08 68.9 °F /  20.5 °C 56.6 °F /  13.7 °C 29.91 in /  1012.8 hPa WNW 3.0 mph /  4.8 km/h 3.0 mph /  4.8 km/h 65 % 0.00 in /  0 mm 72.5 W/m2 OVC
18:13 68.5 °F /  20.3 °C 55.0 °F /  12.8 °C 29.91 in /  1012.8 hPa Calm     62 % 0.00 in /  0 mm 13.6 W/m2 OVC
18:18 68.2 °F /  20.1 °C 54.7 °F /  12.6 °C 29.92 in /  1013.1 hPa SSW 2.3 mph /  3.7 km/h 2.3 mph /  3.7 km/h 62 % 0.00 in /  0 mm 52.5 W/m2 OVC
18:23 67.5 °F /  19.7 °C 56.5 °F /  13.6 °C 29.91 in /  1012.8 hPa Calm     68 % 0.00 in /  0 mm 62.5 W/m2 OVC
18:28 67.1 °F /  19.5 °C 55.8 °F /  13.2 °C 29.91 in /  1012.8 hPa SW 1.5 mph /  2.4 km/h 1.5 mph /  2.4 km/h 67 % 0.00 in /  0 mm 10.6 W/m2 OVC
18:33 66.9 °F /  19.4 °C 56.0 °F /  13.3 °C 29.91 in /  1012.8 hPa Calm     68 % 0.00 in /  0 mm 60.0 W/m2 OVC
18:38 66.9 °F /  19.4 °C 56.4 °F /  13.6 °C 29.91 in /  1012.8 hPa WNW 1.4 mph /  2.3 km/h 1.4 mph /  2.3 km/h 69 % 0.00 in /  0 mm 57.5 W/m2 OVC
18:43 66.9 °F /  19.4 °C 56.4 °F /  13.6 °C 29.92 in /  1013.1 hPa Calm     69 % 0.00 in /  0 mm 14.7 W/m2 OVC
18:48 66.7 °F /  19.3 °C 55.0 °F /  12.8 °C 29.91 in /  1012.8 hPa Calm     66 % 0.00 in /  0 mm 82.5 W/m2 OVC
18:53 67.6 °F /  19.8 °C 55.5 °F /  13.1 °C 29.91 in /  1012.8 hPa West 0.8 mph /  1.3 km/h 0.8 mph /  1.3 km/h 65 % 0.00 in /  0 mm 137.5 W/m2 OVC
18:58 68.0 °F /  20 °C 54.9 °F /  12.7 °C 29.91 in /  1012.8 hPa Calm     63 % 0.00 in /  0 mm 20.9 W/m2 OVC
19:03 68.2 °F /  20.1 °C 54.2 °F /  12.3 °C 29.91 in /  1012.8 hPa South 2.5 mph /  4 km/h 2.5 mph /  4 km/h 61 % 0.00 in /  0 mm 140.0 W/m2 OVC
19:08 68.2 °F /  20.1 °C 55.5 °F /  13.1 °C 29.91 in /  1012.8 hPa Calm     64 % 0.00 in /  0 mm 142.5 W/m2 OVC
19:13 67.1 °F /  19.5 °C 56.2 °F /  13.4 °C 29.91 in /  1012.8 hPa Calm     68 % 0.00 in /  0 mm 7.0 W/m2 OVC
19:18 66.9 °F /  19.4 °C 56.4 °F /  13.6 °C 29.91 in /  1012.8 hPa SW 2.3 mph /  3.7 km/h   69 % 0.00 in /  0 mm 110.0 W/m2 OVC
19:23 66.7 °F /  19.3 °C 56.6 °F /  13.7 °C 29.91 in /  1012.8 hPa Calm     70 % 0.00 in /  0 mm 105.0 W/m2 OVC
19:29 66.2 °F /  19 °C 58.0 °F /  14.4 °C 29.91 in /  1012.8 hPa WNW 3.2 mph /  5.1 km/h 3.2 mph /  5.1 km/h 75 % 0.00 in /  0 mm 4.0 W/m2 OVC
19:31 66.2 °F /  19 °C 57.3 °F /  14.1 °C 29.92 in /  1013.1 hPa WSW 2.3 mph /  3.7 km/h 2.3 mph /  3.7 km/h 73 % 0.00 in /  0 mm 3.6 W/m2 OVC
19:36 65.7 °F /  18.7 °C 59.0 °F /  15 °C 29.92 in /  1013.1 hPa Calm     79 % 0.00 in /  0 mm 105.0 W/m2 OVC
19:41 65.7 °F /  18.7 °C 59.3 °F /  15.2 °C 29.93 in /  1013.4 hPa Calm     80 % 0.00 in /  0 mm 75.0 W/m2 OVC
19:44 65.3 °F /  18.5 °C 59.3 °F /  15.2 °C 29.92 in /  1013.1 hPa Calm     81 % 0.00 in /  0 mm 1.7 W/m2 OVC
19:49 65.1 °F /  18.4 °C 58.1 °F /  14.5 °C 29.93 in /  1013.4 hPa WSW 3.5 mph /  5.6 km/h 3.5 mph /  5.6 km/h 78 % 0.00 in /  0 mm 65.0 W/m2 OVC
19:54 65.5 °F /  18.6 °C 57.7 °F /  14.3 °C 29.93 in /  1013.4 hPa South 4.3 mph /  6.9 km/h 4.3 mph /  6.9 km/h 76 % 0.00 in /  0 mm 80.0 W/m2 OVC
19:59 64.8 °F /  18.2 °C 58.8 °F /  14.9 °C 29.93 in /  1013.4 hPa WSW 1.2 mph /  1.9 km/h 1.2 mph /  1.9 km/h 81 % 0.00 in /  0 mm 0.4 W/m2 OVC
20:04 64.6 °F /  18.1 °C 58.3 °F /  14.6 °C 29.93 in /  1013.4 hPa NNW 1.7 mph /  2.7 km/h 1.7 mph /  2.7 km/h 80 % 0.00 in /  0 mm 57.5 W/m2 OVC
Wether-Above
Compliments of Weather Underground - 2 mb
Welcome to Weather-Above
Cheddleton weather station supplies various organisations with data from our weather station one of them is the weather Underground this information displayed here is coming from the weather Underground server 

If any information is used please acknowledge the source to www weather-above.com or weather Underground